createdAt,value
2023-03-10T00:01:28.963Z,28.90
2023-03-10T00:04:01.775Z,27.70
2023-03-10T00:06:34.849Z,32.10
2023-03-10T00:09:05.773Z,33.00
2023-03-10T00:11:36.470Z,35.30
2023-03-10T00:14:07.144Z,36.30
2023-03-10T00:16:38.568Z,34.20
2023-03-10T00:19:09.523Z,38.80
2023-03-10T00:21:40.180Z,38.00
2023-03-10T00:24:11.717Z,35.40
2023-03-10T00:26:42.745Z,35.50
2023-03-10T00:29:14.057Z,36.60
2023-03-10T00:31:45.447Z,35.90
2023-03-10T00:34:16.385Z,36.30
2023-03-10T00:36:47.633Z,33.90
2023-03-10T00:39:18.669Z,36.00
2023-03-10T00:41:49.827Z,36.10
2023-03-10T00:44:20.547Z,36.30
2023-03-10T00:46:53.940Z,33.90
2023-03-10T00:49:24.680Z,34.00
2023-03-10T00:51:55.517Z,33.40
2023-03-10T00:54:26.450Z,34.20
2023-03-10T00:56:57.283Z,32.70
2023-03-10T00:59:34.868Z,32.40
2023-03-10T01:02:11.650Z,33.40
2023-03-10T01:04:45.427Z,32.90
2023-03-10T01:07:16.201Z,31.50
2023-03-10T01:09:47.024Z,30.50
2023-03-10T01:12:17.658Z,30.30
2023-03-10T01:14:48.260Z,33.60
2023-03-10T01:17:19.161Z,30.30
2023-03-10T01:19:49.962Z,32.50
2023-03-10T01:22:20.797Z,32.00
2023-03-10T01:24:51.530Z,31.50
2023-03-10T01:27:22.419Z,33.20
2023-03-10T01:29:53.152Z,33.10
2023-03-10T01:32:23.785Z,31.40
2023-03-10T01:34:54.572Z,30.80
2023-03-10T01:37:26.009Z,32.10
2023-03-10T01:39:57.079Z,31.40
2023-03-10T01:42:27.782Z,32.00
2023-03-10T01:45:07.262Z,29.50
2023-03-10T01:47:38.690Z,30.90
2023-03-10T01:50:10.856Z,29.80
2023-03-10T01:52:43.110Z,31.90
2023-03-10T01:55:16.476Z,33.30
2023-03-10T01:57:48.899Z,33.70
2023-03-10T02:00:21.006Z,30.70
2023-03-10T02:02:54.473Z,31.10
2023-03-10T02:05:26.086Z,29.30
2023-03-10T02:07:56.707Z,32.20
2023-03-10T02:10:28.164Z,33.00
2023-03-10T02:12:59.118Z,33.00
2023-03-10T02:15:30.661Z,34.60
2023-03-10T02:18:02.372Z,32.30
2023-03-10T02:20:38.886Z,34.90
2023-03-10T02:23:11.675Z,32.70
2023-03-10T02:25:44.753Z,33.70
2023-03-10T02:28:15.499Z,33.10
2023-03-10T02:30:48.785Z,33.30
2023-03-10T02:33:21.278Z,35.90
2023-03-10T02:35:52.413Z,35.90
2023-03-10T02:38:26.721Z,35.10
2023-03-10T02:40:57.761Z,33.20
2023-03-10T02:43:32.956Z,31.50
2023-03-10T02:46:12.246Z,30.80
2023-03-10T02:48:45.014Z,32.30
2023-03-10T02:51:22.294Z,33.30
2023-03-10T02:53:53.376Z,33.60
2023-03-10T02:56:24.766Z,31.20
2023-03-10T02:58:55.760Z,31.40
2023-03-10T03:01:27.943Z,31.60
2023-03-10T03:03:59.821Z,33.20
2023-03-10T03:06:32.750Z,33.00
2023-03-10T03:09:03.902Z,29.80
2023-03-10T03:11:35.028Z,21.40
2023-03-10T03:14:06.552Z,26.40
2023-03-10T03:16:37.435Z,25.20
2023-03-10T03:19:09.988Z,25.60
2023-03-10T03:21:41.845Z,25.40
2023-03-10T03:24:13.676Z,28.00
2023-03-10T03:26:44.949Z,28.10
2023-03-10T03:29:19.061Z,25.70
2023-03-10T03:31:50.174Z,25.00
2023-03-10T03:37:20.599Z,23.10
2023-03-10T03:39:51.806Z,19.30
2023-03-10T03:42:23.239Z,14.00
2023-03-10T03:44:56.347Z,13.90
2023-03-10T03:47:27.938Z,12.10
2023-03-10T03:49:58.822Z,11.60
2023-03-10T03:52:30.104Z,11.80
2023-03-10T03:55:01.221Z,9.80
2023-03-10T03:57:32.532Z,9.70
2023-03-10T04:00:04.442Z,9.00
2023-03-10T04:02:43.660Z,7.70
2023-03-10T04:05:14.378Z,6.30
2023-03-10T04:07:46.865Z,7.40
2023-03-10T04:10:19.381Z,5.60
2023-03-10T04:12:50.472Z,5.60
2023-03-10T04:15:21.613Z,6.30
2023-03-10T04:17:53.160Z,7.00
2023-03-10T04:20:25.056Z,6.60
2023-03-10T04:22:56.798Z,5.10
2023-03-10T04:25:31.911Z,5.00
2023-03-10T04:28:02.897Z,4.70
2023-03-10T04:30:33.552Z,5.10
2023-03-10T04:33:05.246Z,4.60
2023-03-10T04:35:36.632Z,4.40
2023-03-10T04:38:08.042Z,3.80
2023-03-10T04:40:38.842Z,4.50
2023-03-10T04:43:10.125Z,3.70
2023-03-10T04:45:41.496Z,3.10
2023-03-10T04:48:12.924Z,2.50
2023-03-10T04:50:43.793Z,3.70
2023-03-10T04:53:16.780Z,4.90
2023-03-10T04:55:47.584Z,5.40
2023-03-10T04:58:18.730Z,3.50
2023-03-10T05:01:02.155Z,4.10
2023-03-10T05:03:34.636Z,3.80
2023-03-10T05:06:06.109Z,4.00
2023-03-10T05:08:37.110Z,3.10
2023-03-10T05:11:08.768Z,5.70
2023-03-10T05:13:40.106Z,4.90
2023-03-10T05:16:15.680Z,4.50
2023-03-10T05:18:49.670Z,4.40
2023-03-10T05:21:22.969Z,4.00
2023-03-10T05:23:54.510Z,8.80
2023-03-10T05:26:25.662Z,9.60
2023-03-10T05:28:56.391Z,10.60
2023-03-10T05:31:38.134Z,9.10
2023-03-10T05:34:14.553Z,10.70
2023-03-10T05:36:45.589Z,9.10
2023-03-10T05:39:16.951Z,8.30
2023-03-10T05:41:49.919Z,7.70
2023-03-10T05:44:21.478Z,9.30
2023-03-10T05:46:52.942Z,8.00
2023-03-10T05:49:25.000Z,7.50
2023-03-10T05:51:56.109Z,10.60
2023-03-10T05:54:27.207Z,8.90
2023-03-10T05:56:57.923Z,9.30
2023-03-10T05:59:30.552Z,9.40
2023-03-10T06:02:01.330Z,9.90
2023-03-10T06:04:33.626Z,10.60
2023-03-10T06:07:05.345Z,9.20
2023-03-10T06:09:36.293Z,12.00
2023-03-10T06:12:07.837Z,9.20
2023-03-10T06:14:39.396Z,11.40
2023-03-10T06:17:10.225Z,9.20
2023-03-10T06:19:41.499Z,10.40
2023-03-10T06:22:13.838Z,9.90
2023-03-10T06:24:45.909Z,7.80
2023-03-10T06:27:16.554Z,9.10
2023-03-10T06:29:49.929Z,12.20
2023-03-10T06:32:20.617Z,7.90
2023-03-10T06:34:51.462Z,8.40
2023-03-10T06:37:22.143Z,8.30
2023-03-10T06:39:53.520Z,7.70
2023-03-10T06:42:24.110Z,9.80
2023-03-10T06:44:56.488Z,8.40
2023-03-10T06:47:27.023Z,6.90
2023-03-10T06:49:58.905Z,10.00
2023-03-10T06:52:29.623Z,13.90
2023-03-10T06:55:00.556Z,7.90
2023-03-10T06:57:31.174Z,6.30
2023-03-10T07:00:01.886Z,8.80
2023-03-10T07:02:32.846Z,7.70
2023-03-10T07:05:03.598Z,10.30
2023-03-10T07:07:34.317Z,8.30
2023-03-10T07:10:08.308Z,6.80
2023-03-10T07:12:39.176Z,8.80
2023-03-10T07:15:10.821Z,7.10
2023-03-10T07:17:41.450Z,6.80
2023-03-10T07:20:14.064Z,8.20
2023-03-10T07:22:44.748Z,9.00
2023-03-10T07:25:15.689Z,8.10
2023-03-10T07:27:46.455Z,6.70
2023-03-10T07:30:17.722Z,6.00
2023-03-10T07:32:48.491Z,6.50
2023-03-10T07:35:19.552Z,4.20
2023-03-10T07:37:50.379Z,3.90
2023-03-10T07:40:25.342Z,3.90
2023-03-10T07:42:56.250Z,3.60
2023-03-10T07:45:28.100Z,2.80
2023-03-10T07:47:58.834Z,3.00
2023-03-10T07:50:29.846Z,2.80
2023-03-10T07:53:00.624Z,2.40
2023-03-10T07:55:31.335Z,2.60
2023-03-10T07:58:01.885Z,2.40
2023-03-10T08:00:33.229Z,2.30
2023-03-10T08:03:03.850Z,2.30
2023-03-10T08:05:35.015Z,2.40
2023-03-10T08:08:06.753Z,2.40
2023-03-10T08:10:38.035Z,2.80
2023-03-10T08:13:09.138Z,2.10
2023-03-10T08:15:41.250Z,2.00
2023-03-10T08:18:12.207Z,2.10
2023-03-10T08:20:43.802Z,2.10
2023-03-10T08:23:14.952Z,2.20
2023-03-10T08:25:45.707Z,2.40
2023-03-10T08:28:16.205Z,1.80
2023-03-10T08:31:03.096Z,2.20
2023-03-10T08:33:34.573Z,1.90
2023-03-10T08:36:07.641Z,1.70
2023-03-10T08:38:38.602Z,2.50
2023-03-10T08:41:15.065Z,2.00
2023-03-10T08:43:48.837Z,2.00
2023-03-10T08:46:20.942Z,1.70
2023-03-10T08:48:51.870Z,1.50
2023-03-10T08:51:23.107Z,1.60
2023-03-10T08:53:54.374Z,1.70
2023-03-10T08:56:25.520Z,1.40
2023-03-10T08:58:59.228Z,1.40
2023-03-10T09:01:31.133Z,1.30
2023-03-10T09:04:02.582Z,1.10
2023-03-10T09:06:33.968Z,1.40
2023-03-10T09:09:06.603Z,1.10
2023-03-10T09:11:39.198Z,1.20
2023-03-10T09:14:10.202Z,1.10
2023-03-10T09:16:41.759Z,1.10
2023-03-10T09:19:12.672Z,1.10
2023-03-10T09:21:43.703Z,1.20
2023-03-10T09:24:14.511Z,1.10
2023-03-10T09:26:45.452Z,1.20
2023-03-10T09:29:16.199Z,1.50
2023-03-10T09:31:48.979Z,1.40
2023-03-10T09:34:19.621Z,1.40
2023-03-10T09:36:50.654Z,1.40
2023-03-10T09:39:21.593Z,1.00
2023-03-10T09:42:13.246Z,1.30
2023-03-10T09:44:47.724Z,1.00
2023-03-10T09:47:24.231Z,1.10
2023-03-10T09:50:02.814Z,1.30
2023-03-10T09:52:39.501Z,1.20
2023-03-10T09:55:16.682Z,1.20
2023-03-10T09:57:48.130Z,1.30
2023-03-10T10:00:21.941Z,1.30
2023-03-10T10:02:56.070Z,1.60
2023-03-10T10:05:28.203Z,1.50
2023-03-10T10:08:01.708Z,1.00
2023-03-10T10:10:36.662Z,1.30
2023-03-10T10:13:13.475Z,1.30
2023-03-10T10:15:45.638Z,1.10
2023-03-10T10:18:20.836Z,1.30
2023-03-10T10:20:59.273Z,1.60
2023-03-10T10:23:35.290Z,1.50
2023-03-10T10:26:10.728Z,1.10
2023-03-10T10:28:43.816Z,1.30
2023-03-10T10:31:20.795Z,1.40
2023-03-10T10:33:59.223Z,1.10
2023-03-10T10:36:31.739Z,1.20
2023-03-10T10:39:03.958Z,1.70
2023-03-10T10:41:36.478Z,1.80
2023-03-10T10:44:10.329Z,1.50
2023-03-10T10:46:51.301Z,1.40
2023-03-10T10:49:24.552Z,1.90
2023-03-10T10:52:05.569Z,1.20
2023-03-10T10:54:38.901Z,1.30
2023-03-10T10:57:18.899Z,1.40
2023-03-10T10:59:50.074Z,1.30
2023-03-10T11:02:28.503Z,1.10
2023-03-10T11:05:10.538Z,1.50
2023-03-10T11:07:42.158Z,1.30
2023-03-10T11:10:24.372Z,1.30
2023-03-10T11:12:58.030Z,1.50
2023-03-10T11:15:31.568Z,1.70
2023-03-10T11:18:05.025Z,1.20
2023-03-10T11:23:09.824Z,1.60
2023-03-10T11:25:44.290Z,1.50
2023-03-10T11:28:28.347Z,1.00
2023-03-10T11:31:07.652Z,1.90
2023-03-10T11:33:43.806Z,1.50
2023-03-10T11:36:19.211Z,1.50
2023-03-10T11:38:51.164Z,1.30
2023-03-10T11:41:24.245Z,1.50
2023-03-10T11:43:58.107Z,1.50
2023-03-10T11:46:30.524Z,1.50
2023-03-10T11:49:07.479Z,1.50
2023-03-10T11:51:41.417Z,1.30
2023-03-10T11:54:26.608Z,1.60
2023-03-10T11:56:59.261Z,1.30
2023-03-10T11:59:33.209Z,1.50
2023-03-10T12:02:07.052Z,1.80
2023-03-10T12:04:41.952Z,1.60
2023-03-10T12:07:15.992Z,1.40
2023-03-10T12:09:50.962Z,1.70
2023-03-10T12:12:26.108Z,1.70
2023-03-10T12:14:58.232Z,1.60
2023-03-10T12:17:29.588Z,1.70
2023-03-10T12:20:24.232Z,1.40
2023-03-10T12:22:55.620Z,1.70
2023-03-10T12:25:40.191Z,1.40
2023-03-10T12:28:14.564Z,2.10
2023-03-10T12:30:49.488Z,1.60
2023-03-10T12:33:40.328Z,1.30
2023-03-10T12:36:12.794Z,1.70
2023-03-10T12:38:48.774Z,1.30
2023-03-10T12:41:35.265Z,1.40
2023-03-10T12:44:27.092Z,1.60
2023-03-10T12:47:00.612Z,1.80
2023-03-10T12:52:08.543Z,1.70
2023-03-10T12:54:46.609Z,1.40
2023-03-10T12:57:21.046Z,1.90
2023-03-10T12:59:59.020Z,1.80
2023-03-10T13:02:33.900Z,1.60
2023-03-10T13:05:06.577Z,2.40
2023-03-10T13:07:39.455Z,2.20
2023-03-10T13:10:17.850Z,1.60
2023-03-10T13:12:50.451Z,1.60
2023-03-10T13:15:25.122Z,1.50
2023-03-10T13:17:57.017Z,1.60
2023-03-10T13:20:27.797Z,1.70
2023-03-10T13:22:59.389Z,1.50
2023-03-10T13:25:30.398Z,1.90
2023-03-10T13:28:09.473Z,1.60
2023-03-10T13:30:40.396Z,1.80
2023-03-10T13:49:06.556Z,1.40
2023-03-10T13:51:38.184Z,1.60
2023-03-10T13:54:19.999Z,1.60
2023-03-10T13:56:52.161Z,1.60
2023-03-10T13:59:23.611Z,2.00
2023-03-10T14:01:56.683Z,1.80
2023-03-10T14:04:41.255Z,2.30
2023-03-10T14:07:18.928Z,1.80
2023-03-10T14:10:12.402Z,1.30
2023-03-10T14:12:59.980Z,1.50
2023-03-10T14:15:31.987Z,1.80
2023-03-10T14:18:17.572Z,1.80
2023-03-10T14:20:48.692Z,1.60
2023-03-10T14:23:27.291Z,1.90
2023-03-10T14:25:59.287Z,1.60
2023-03-10T14:28:31.733Z,2.40
2023-03-10T14:31:04.930Z,2.10
2023-03-10T14:33:37.217Z,2.00
2023-03-10T14:36:12.304Z,1.60
2023-03-10T14:38:45.563Z,1.80
2023-03-10T14:41:18.484Z,1.80
2023-03-10T14:43:49.162Z,2.10
2023-03-10T14:46:20.714Z,2.10
2023-03-10T14:48:51.754Z,1.60
2023-03-10T14:51:35.112Z,2.00
2023-03-10T14:54:12.577Z,1.90
2023-03-10T14:56:45.265Z,2.30
2023-03-10T14:59:16.764Z,1.90
2023-03-10T15:01:47.622Z,1.80
2023-03-10T15:04:19.206Z,2.20
2023-03-10T15:06:50.660Z,2.20
2023-03-10T15:09:22.928Z,2.10
2023-03-10T15:11:55.194Z,1.90
2023-03-10T15:14:25.992Z,1.80
2023-03-10T15:16:56.672Z,2.20
2023-03-10T15:19:28.150Z,1.70
2023-03-10T15:21:59.097Z,2.00
2023-03-10T15:24:30.416Z,2.10
2023-03-10T15:27:01.323Z,2.60
2023-03-10T15:29:32.142Z,2.50
2023-03-10T15:32:03.222Z,2.10
2023-03-10T15:34:33.839Z,2.30
2023-03-10T15:37:07.726Z,2.40
2023-03-10T15:39:38.733Z,2.20
2023-03-10T15:42:12.748Z,2.20
2023-03-10T15:44:53.115Z,2.20
2023-03-10T15:47:26.372Z,2.70
2023-03-10T15:49:57.589Z,2.80
2023-03-10T15:52:28.684Z,2.80
2023-03-10T15:54:59.529Z,2.40
2023-03-10T15:57:30.517Z,2.30
2023-03-10T16:00:01.433Z,2.70
2023-03-10T16:02:32.475Z,1.90
2023-03-10T16:05:04.617Z,2.20
2023-03-10T16:07:35.566Z,2.30
2023-03-10T16:10:06.809Z,2.50
2023-03-10T16:12:37.776Z,2.60
2023-03-10T16:15:10.236Z,2.30
2023-03-10T16:17:41.390Z,2.60
2023-03-10T16:20:14.090Z,2.50
2023-03-10T16:22:45.178Z,2.50
2023-03-10T16:25:16.922Z,2.70
2023-03-10T16:27:48.308Z,2.80
2023-03-10T16:30:19.345Z,2.60
2023-03-10T16:32:51.167Z,2.30
2023-03-10T16:35:22.256Z,2.50
2023-03-10T16:37:54.106Z,2.40
2023-03-10T16:40:24.843Z,2.20
2023-03-10T16:42:56.106Z,2.10
2023-03-10T16:45:27.335Z,2.30
2023-03-10T16:47:58.684Z,2.70
2023-03-10T16:50:44.379Z,2.50
2023-03-10T16:53:17.633Z,2.60
2023-03-10T16:55:48.732Z,2.40
2023-03-10T16:58:20.109Z,2.90
2023-03-10T17:00:51.218Z,3.10
2023-03-10T17:03:23.429Z,3.30
2023-03-10T17:05:54.598Z,3.50
2023-03-10T17:08:26.262Z,3.80
2023-03-10T17:10:57.393Z,3.80
2023-03-10T17:13:28.600Z,3.70
2023-03-10T17:15:59.777Z,4.50
2023-03-10T17:18:30.722Z,5.90
2023-03-10T17:21:10.976Z,5.50
2023-03-10T17:23:41.825Z,5.40
2023-03-10T17:26:13.465Z,4.50
2023-03-10T17:28:45.414Z,3.30
2023-03-10T17:31:17.622Z,3.60
2023-03-10T17:33:48.871Z,3.80
2023-03-10T17:36:19.866Z,3.00
2023-03-10T17:38:53.501Z,2.80
2023-03-10T17:41:24.434Z,2.40
2023-03-10T17:43:56.121Z,2.10
2023-03-10T17:46:28.577Z,1.80
2023-03-10T17:49:00.268Z,1.30
2023-03-10T17:51:32.191Z,1.60
2023-03-10T17:54:03.619Z,1.60
2023-03-10T17:56:34.805Z,1.40
2023-03-10T17:59:05.718Z,1.50
2023-03-10T18:01:36.640Z,1.70
2023-03-10T18:04:07.978Z,2.00
2023-03-10T18:06:39.025Z,1.70
2023-03-10T18:09:13.341Z,2.20
2023-03-10T18:11:44.296Z,1.20
2023-03-10T18:14:15.425Z,1.50
2023-03-10T18:16:46.367Z,2.60
2023-03-10T18:19:19.191Z,2.10
2023-03-10T18:21:53.779Z,2.50
2023-03-10T18:24:24.912Z,2.50
2023-03-10T18:26:56.289Z,2.70
2023-03-10T18:29:27.308Z,2.30
2023-03-10T18:31:58.142Z,3.00
2023-03-10T18:34:29.487Z,2.70
2023-03-10T18:37:02.781Z,2.60
2023-03-10T18:39:33.604Z,2.40
2023-03-10T18:42:04.668Z,2.70
2023-03-10T18:44:35.587Z,2.90
2023-03-10T18:47:06.848Z,4.10
2023-03-10T18:49:38.221Z,2.50
2023-03-10T18:52:09.358Z,2.50
2023-03-10T18:54:40.378Z,2.80
2023-03-10T18:57:11.103Z,3.20
2023-03-10T18:59:45.066Z,3.10
2023-03-10T19:02:16.474Z,2.90
2023-03-10T19:04:48.284Z,2.80
2023-03-10T19:07:20.734Z,3.10
2023-03-10T19:09:55.544Z,2.60
2023-03-10T19:12:26.964Z,3.20
2023-03-10T19:14:59.747Z,2.90
2023-03-10T19:17:30.586Z,2.60
2023-03-10T19:20:01.953Z,2.80
2023-03-10T19:22:35.047Z,3.00
2023-03-10T19:25:07.453Z,3.40
2023-03-10T19:27:40.062Z,3.10
2023-03-10T19:30:13.056Z,3.20
2023-03-10T19:32:43.878Z,3.40
2023-03-10T19:35:16.128Z,3.40
2023-03-10T19:37:47.415Z,3.10
2023-03-10T19:40:19.823Z,3.10
2023-03-10T19:42:50.746Z,2.70
2023-03-10T19:45:21.665Z,3.20
2023-03-10T19:47:53.312Z,3.00
2023-03-10T19:50:24.396Z,3.10
2023-03-10T19:52:56.107Z,3.40
2023-03-10T19:55:28.057Z,3.00
2023-03-10T19:57:58.902Z,3.20
2023-03-10T20:00:36.318Z,3.10
2023-03-10T20:03:07.247Z,3.30
2023-03-10T20:05:38.682Z,3.90
2023-03-10T20:08:09.913Z,3.70
2023-03-10T20:10:41.432Z,3.70
2023-03-10T20:13:12.476Z,3.60
2023-03-10T20:15:43.560Z,4.00
2023-03-10T20:18:14.399Z,3.90
2023-03-10T20:20:46.055Z,3.60
2023-03-10T20:23:17.278Z,4.60
2023-03-10T20:25:48.960Z,4.50
2023-03-10T20:28:19.898Z,4.60
2023-03-10T20:30:50.639Z,4.10
2023-03-10T20:33:22.174Z,3.80
2023-03-10T20:35:53.786Z,4.00
2023-03-10T20:38:27.560Z,4.40
2023-03-10T20:40:58.399Z,4.80
2023-03-10T20:43:29.403Z,4.90
2023-03-10T20:46:00.426Z,4.50
2023-03-10T20:48:31.440Z,4.50
2023-03-10T20:51:06.644Z,4.30
2023-03-10T20:53:38.995Z,4.40
2023-03-10T20:56:10.835Z,4.20
2023-03-10T20:58:42.058Z,4.80
2023-03-10T21:01:17.386Z,4.40
2023-03-10T21:03:48.468Z,4.30
2023-03-10T21:06:19.718Z,4.80
2023-03-10T21:08:50.965Z,5.20
2023-03-10T21:11:22.079Z,5.00
2023-03-10T21:13:53.448Z,4.80
2023-03-10T21:16:24.435Z,4.40
2023-03-10T21:18:55.531Z,4.80
2023-03-10T21:21:26.577Z,4.00
2023-03-10T21:23:57.824Z,4.40
2023-03-10T21:26:28.865Z,4.90
2023-03-10T21:29:00.371Z,4.40
2023-03-10T21:31:31.220Z,4.60
2023-03-10T21:34:05.012Z,5.40
2023-03-10T21:36:36.314Z,4.80
2023-03-10T21:39:09.231Z,5.00
2023-03-10T21:41:40.640Z,4.40
2023-03-10T21:44:11.884Z,4.40
2023-03-10T21:46:43.408Z,4.80
2023-03-10T21:49:14.527Z,4.10
2023-03-10T21:51:45.733Z,5.30
2023-03-10T21:54:16.895Z,4.70
2023-03-10T21:56:48.014Z,5.70
2023-03-10T21:59:19.252Z,19.40
2023-03-10T22:01:50.466Z,8.70
2023-03-10T22:04:21.568Z,22.30
2023-03-10T22:06:52.575Z,6.10
2023-03-10T22:09:23.535Z,4.90
2023-03-10T22:11:54.409Z,4.50
2023-03-10T22:14:25.505Z,4.70
2023-03-10T22:16:56.480Z,5.30
2023-03-10T22:19:32.444Z,5.60
2023-03-10T22:22:11.910Z,5.00
2023-03-10T22:24:43.743Z,4.70
2023-03-10T22:27:14.572Z,5.40
2023-03-10T22:29:46.278Z,4.70
2023-03-10T22:32:17.130Z,5.00
2023-03-10T22:34:48.051Z,4.60
2023-03-10T22:37:19.003Z,4.60
2023-03-10T22:39:50.033Z,4.90
2023-03-10T22:42:21.050Z,5.20
2023-03-10T22:44:51.812Z,4.70
2023-03-10T22:47:22.639Z,5.50
2023-03-10T22:49:53.576Z,5.60
2023-03-10T22:52:24.614Z,5.00
2023-03-10T22:54:56.380Z,4.80
2023-03-10T22:57:27.411Z,5.20
2023-03-10T22:59:58.451Z,5.60
2023-03-10T23:02:29.534Z,6.50
2023-03-10T23:05:00.641Z,6.20
2023-03-10T23:07:31.673Z,5.80
2023-03-10T23:10:02.470Z,5.20
2023-03-10T23:12:33.358Z,5.70
2023-03-10T23:15:09.315Z,6.30
2023-03-10T23:17:43.029Z,5.50
2023-03-10T23:20:14.984Z,5.70
2023-03-10T23:22:46.609Z,5.80
2023-03-10T23:25:19.522Z,5.70
2023-03-10T23:27:50.348Z,5.90
2023-03-10T23:30:21.478Z,5.40
2023-03-10T23:32:52.775Z,5.60
2023-03-10T23:35:25.362Z,5.20
2023-03-10T23:37:57.203Z,6.00
2023-03-10T23:40:28.629Z,6.20
2023-03-10T23:43:00.792Z,5.50
2023-03-10T23:45:32.616Z,5.80
2023-03-10T23:48:05.070Z,5.30
2023-03-10T23:50:41.185Z,6.90
2023-03-10T23:53:12.660Z,5.80
2023-03-10T23:55:44.438Z,6.20
2023-03-10T23:58:16.976Z,6.30
